sensor_id;sensor_type;location;lat;lon;timestamp;P1;durP1;ratioP1;P2;durP2;ratioP2
62711;SDS011;48772;55.586;37.730;2022-09-21T00:02:03;16.85;;;9.55;;
62711;SDS011;48772;55.586;37.730;2022-09-21T00:04:29;23.17;;;11.65;;
62711;SDS011;48772;55.586;37.730;2022-09-21T00:06:54;19.13;;;10.48;;
62711;SDS011;48772;55.586;37.730;2022-09-21T00:09:20;17.33;;;10.30;;
62711;SDS011;48772;55.586;37.730;2022-09-21T00:11:46;21.05;;;10.50;;
62711;SDS011;48772;55.586;37.730;2022-09-21T00:14:12;17.00;;;9.65;;
62711;SDS011;48772;55.586;37.730;2022-09-21T00:16:39;20.45;;;10.80;;
62711;SDS011;48772;55.586;37.730;2022-09-21T00:19:05;23.42;;;11.25;;
62711;SDS011;48772;55.586;37.730;2022-09-21T00:21:31;18.38;;;10.00;;
62711;SDS011;48772;55.586;37.730;2022-09-21T00:23:58;19.20;;;11.02;;
62711;SDS011;48772;55.586;37.730;2022-09-21T00:26:24;19.65;;;11.15;;
62711;SDS011;48772;55.586;37.730;2022-09-21T00:28:54;19.65;;;11.10;;
62711;SDS011;48772;55.586;37.730;2022-09-21T00:31:20;22.33;;;12.80;;
62711;SDS011;48772;55.586;37.730;2022-09-21T00:33:45;16.40;;;10.43;;
62711;SDS011;48772;55.586;37.730;2022-09-21T00:36:12;22.00;;;12.00;;
62711;SDS011;48772;55.586;37.730;2022-09-21T00:38:38;16.60;;;11.30;;
62711;SDS011;48772;55.586;37.730;2022-09-21T00:41:05;19.10;;;11.95;;
62711;SDS011;48772;55.586;37.730;2022-09-21T00:43:35;14.73;;;9.60;;
62711;SDS011;48772;55.586;37.730;2022-09-21T00:46:06;14.82;;;10.55;;
62711;SDS011;48772;55.586;37.730;2022-09-21T00:48:35;17.27;;;10.57;;
62711;SDS011;48772;55.586;37.730;2022-09-21T00:51:02;17.52;;;11.10;;
62711;SDS011;48772;55.586;37.730;2022-09-21T00:53:30;13.40;;;7.35;;
62711;SDS011;48772;55.586;37.730;2022-09-21T00:55:57;14.75;;;9.00;;
62711;SDS011;48772;55.586;37.730;2022-09-21T00:58:25;17.08;;;11.07;;
62711;SDS011;48772;55.586;37.730;2022-09-21T01:00:52;15.40;;;11.60;;
62711;SDS011;48772;55.586;37.730;2022-09-21T01:03:18;19.02;;;11.98;;
62711;SDS011;48772;55.586;37.730;2022-09-21T01:05:44;19.77;;;11.00;;
62711;SDS011;48772;55.586;37.730;2022-09-21T01:08:09;16.40;;;11.27;;
62711;SDS011;48772;55.586;37.730;2022-09-21T01:10:45;16.40;;;10.88;;
62711;SDS011;48772;55.586;37.730;2022-09-21T01:31:31;13.10;;;7.53;;
62711;SDS011;48772;55.586;37.730;2022-09-21T01:34:00;13.30;;;7.90;;
62711;SDS011;48772;55.586;37.730;2022-09-21T01:36:27;15.35;;;7.25;;
62711;SDS011;48772;55.586;37.730;2022-09-21T01:38:55;9.13;;;6.30;;
62711;SDS011;48772;55.586;37.730;2022-09-21T01:41:23;10.38;;;7.20;;
62711;SDS011;48772;55.586;37.730;2022-09-21T01:43:52;11.90;;;6.72;;
62711;SDS011;48772;55.586;37.730;2022-09-21T01:46:24;10.30;;;6.45;;
62711;SDS011;48772;55.586;37.730;2022-09-21T01:48:52;11.63;;;8.23;;
62711;SDS011;48772;55.586;37.730;2022-09-21T01:51:19;17.45;;;8.32;;
62711;SDS011;48772;55.586;37.730;2022-09-21T01:53:53;15.90;;;7.30;;
62711;SDS011;48772;55.586;37.730;2022-09-21T01:56:23;17.35;;;10.43;;
62711;SDS011;48772;55.586;37.730;2022-09-21T02:01:19;16.42;;;9.85;;
62711;SDS011;48772;55.586;37.730;2022-09-21T02:03:50;14.30;;;8.60;;
62711;SDS011;48772;55.586;37.730;2022-09-21T02:06:17;20.77;;;9.98;;
62711;SDS011;48772;55.586;37.730;2022-09-21T02:08:43;16.75;;;9.65;;
62711;SDS011;48772;55.586;37.730;2022-09-21T02:11:10;14.18;;;8.38;;
62711;SDS011;48772;55.586;37.730;2022-09-21T02:13:39;17.27;;;8.60;;
62711;SDS011;48772;55.586;37.730;2022-09-21T02:21:00;14.77;;;8.95;;
62711;SDS011;48772;55.586;37.730;2022-09-21T02:23:31;15.00;;;8.73;;
62711;SDS011;48772;55.586;37.730;2022-09-21T02:26:04;13.88;;;8.38;;
62711;SDS011;48772;55.586;37.730;2022-09-21T02:28:37;10.63;;;7.65;;
62711;SDS011;48772;55.586;37.730;2022-09-21T02:33:38;12.15;;;7.53;;
62711;SDS011;48772;55.586;37.730;2022-09-21T02:36:07;16.65;;;9.32;;
62711;SDS011;48772;55.586;37.730;2022-09-21T02:38:39;15.45;;;8.73;;
62711;SDS011;48772;55.586;37.730;2022-09-21T02:41:22;11.35;;;7.82;;
62711;SDS011;48772;55.586;37.730;2022-09-21T02:43:50;10.75;;;7.55;;
62711;SDS011;48772;55.586;37.730;2022-09-21T02:46:18;10.90;;;7.68;;
62711;SDS011;48772;55.586;37.730;2022-09-21T02:48:58;14.38;;;8.15;;
62711;SDS011;48772;55.586;37.730;2022-09-21T02:51:29;12.57;;;7.65;;
62711;SDS011;48772;55.586;37.730;2022-09-21T02:53:55;14.35;;;8.32;;
62711;SDS011;48772;55.586;37.730;2022-09-21T02:56:22;13.35;;;8.48;;
62711;SDS011;48772;55.586;37.730;2022-09-21T02:58:50;14.57;;;9.05;;
62711;SDS011;48772;55.586;37.730;2022-09-21T03:01:18;19.98;;;9.60;;
62711;SDS011;48772;55.586;37.730;2022-09-21T03:03:44;14.85;;;8.80;;
62711;SDS011;48772;55.586;37.730;2022-09-21T03:06:10;15.80;;;10.05;;
62711;SDS011;48772;55.586;37.730;2022-09-21T03:08:36;20.27;;;9.93;;
62711;SDS011;48772;55.586;37.730;2022-09-21T03:11:02;23.80;;;10.48;;
62711;SDS011;48772;55.586;37.730;2022-09-21T03:13:27;20.38;;;10.20;;
62711;SDS011;48772;55.586;37.730;2022-09-21T03:16:00;24.65;;;10.90;;
62711;SDS011;48772;55.586;37.730;2022-09-21T03:18:26;16.42;;;10.65;;
62711;SDS011;48772;55.586;37.730;2022-09-21T03:20:52;24.30;;;10.20;;
62711;SDS011;48772;55.586;37.730;2022-09-21T03:23:18;21.17;;;11.20;;
62711;SDS011;48772;55.586;37.730;2022-09-21T03:25:44;18.00;;;11.52;;
62711;SDS011;48772;55.586;37.730;2022-09-21T03:28:12;21.60;;;11.52;;
62711;SDS011;48772;55.586;37.730;2022-09-21T03:30:39;19.67;;;10.68;;
62711;SDS011;48772;55.586;37.730;2022-09-21T03:33:04;19.15;;;10.93;;
62711;SDS011;48772;55.586;37.730;2022-09-21T03:35:30;17.95;;;10.10;;
62711;SDS011;48772;55.586;37.730;2022-09-21T03:37:58;18.58;;;10.43;;
62711;SDS011;48772;55.586;37.730;2022-09-21T03:40:24;19.95;;;11.25;;
62711;SDS011;48772;55.586;37.730;2022-09-21T03:42:51;16.83;;;10.15;;
62711;SDS011;48772;55.586;37.730;2022-09-21T03:45:16;16.75;;;10.10;;
62711;SDS011;48772;55.586;37.730;2022-09-21T03:47:42;23.00;;;10.70;;
62711;SDS011;48772;55.586;37.730;2022-09-21T03:50:08;19.15;;;10.20;;
62711;SDS011;48772;55.586;37.730;2022-09-21T03:52:34;29.50;;;11.23;;
62711;SDS011;48772;55.586;37.730;2022-09-21T03:55:02;21.98;;;11.70;;
62711;SDS011;48772;55.586;37.730;2022-09-21T03:57:29;17.90;;;11.00;;
62711;SDS011;48772;55.586;37.730;2022-09-21T03:59:54;17.27;;;11.25;;
62711;SDS011;48772;55.586;37.730;2022-09-21T04:02:20;21.73;;;12.43;;
62711;SDS011;48772;55.586;37.730;2022-09-21T04:04:46;24.10;;;12.13;;
62711;SDS011;48772;55.586;37.730;2022-09-21T04:07:12;18.38;;;11.30;;
62711;SDS011;48772;55.586;37.730;2022-09-21T04:09:39;25.30;;;11.60;;
62711;SDS011;48772;55.586;37.730;2022-09-21T04:12:06;24.42;;;11.63;;
62711;SDS011;48772;55.586;37.730;2022-09-21T04:14:31;17.58;;;11.40;;
62711;SDS011;48772;55.586;37.730;2022-09-21T04:16:58;21.27;;;12.25;;
62711;SDS011;48772;55.586;37.730;2022-09-21T04:19:23;23.88;;;12.43;;
62711;SDS011;48772;55.586;37.730;2022-09-21T04:21:49;27.75;;;12.88;;
62711;SDS011;48772;55.586;37.730;2022-09-21T04:24:16;21.92;;;13.45;;
62711;SDS011;48772;55.586;37.730;2022-09-21T04:26:43;21.98;;;12.63;;
62711;SDS011;48772;55.586;37.730;2022-09-21T04:29:10;18.33;;;13.10;;
62711;SDS011;48772;55.586;37.730;2022-09-21T04:31:35;27.90;;;14.25;;
62711;SDS011;48772;55.586;37.730;2022-09-21T04:34:01;24.58;;;13.00;;
62711;SDS011;48772;55.586;37.730;2022-09-21T04:36:27;26.70;;;14.48;;
62711;SDS011;48772;55.586;37.730;2022-09-21T04:38:52;26.00;;;14.40;;
62711;SDS011;48772;55.586;37.730;2022-09-21T04:41:18;26.02;;;15.00;;
62711;SDS011;48772;55.586;37.730;2022-09-21T04:43:44;26.33;;;14.73;;
62711;SDS011;48772;55.586;37.730;2022-09-21T04:46:11;20.70;;;14.05;;
62711;SDS011;48772;55.586;37.730;2022-09-21T04:48:37;25.70;;;14.57;;
62711;SDS011;48772;55.586;37.730;2022-09-21T04:51:03;29.90;;;13.73;;
62711;SDS011;48772;55.586;37.730;2022-09-21T04:53:32;22.27;;;13.50;;
62711;SDS011;48772;55.586;37.730;2022-09-21T04:55:57;29.05;;;14.38;;
62711;SDS011;48772;55.586;37.730;2022-09-21T04:58:23;22.80;;;13.35;;
62711;SDS011;48772;55.586;37.730;2022-09-21T05:00:49;23.13;;;12.70;;
62711;SDS011;48772;55.586;37.730;2022-09-21T05:03:16;22.48;;;13.02;;
62711;SDS011;48772;55.586;37.730;2022-09-21T05:05:48;24.67;;;13.07;;
62711;SDS011;48772;55.586;37.730;2022-09-21T05:08:14;32.55;;;13.52;;
62711;SDS011;48772;55.586;37.730;2022-09-21T05:10:40;39.88;;;12.60;;
62711;SDS011;48772;55.586;37.730;2022-09-21T05:13:05;30.73;;;13.05;;
62711;SDS011;48772;55.586;37.730;2022-09-21T05:15:31;24.95;;;11.77;;
62711;SDS011;48772;55.586;37.730;2022-09-21T05:17:57;18.70;;;12.00;;
62711;SDS011;48772;55.586;37.730;2022-09-21T05:20:22;25.63;;;11.73;;
62711;SDS011;48772;55.586;37.730;2022-09-21T05:22:48;26.67;;;12.73;;
62711;SDS011;48772;55.586;37.730;2022-09-21T05:25:14;20.77;;;11.35;;
62711;SDS011;48772;55.586;37.730;2022-09-21T05:27:40;20.60;;;11.32;;
62711;SDS011;48772;55.586;37.730;2022-09-21T05:30:06;20.88;;;11.43;;
62711;SDS011;48772;55.586;37.730;2022-09-21T05:32:43;23.92;;;11.98;;
62711;SDS011;48772;55.586;37.730;2022-09-21T05:37:56;15.95;;;9.63;;
62711;SDS011;48772;55.586;37.730;2022-09-21T05:40:23;21.48;;;10.07;;
62711;SDS011;48772;55.586;37.730;2022-09-21T05:42:49;17.30;;;9.57;;
62711;SDS011;48772;55.586;37.730;2022-09-21T05:45:15;25.10;;;9.32;;
62711;SDS011;48772;55.586;37.730;2022-09-21T06:00:22;19.77;;;8.20;;
62711;SDS011;48772;55.586;37.730;2022-09-21T06:05:14;21.77;;;8.20;;
62711;SDS011;48772;55.586;37.730;2022-09-21T06:07:40;18.48;;;8.45;;
62711;SDS011;48772;55.586;37.730;2022-09-21T06:10:07;17.05;;;8.27;;
62711;SDS011;48772;55.586;37.730;2022-09-21T06:12:33;21.88;;;8.45;;
62711;SDS011;48772;55.586;37.730;2022-09-21T06:14:58;15.43;;;8.60;;
62711;SDS011;48772;55.586;37.730;2022-09-21T06:17:24;21.63;;;9.55;;
62711;SDS011;48772;55.586;37.730;2022-09-21T06:19:52;15.75;;;8.65;;
62711;SDS011;48772;55.586;37.730;2022-09-21T06:22:18;16.42;;;8.98;;
62711;SDS011;48772;55.586;37.730;2022-09-21T06:24:43;16.45;;;8.18;;
62711;SDS011;48772;55.586;37.730;2022-09-21T06:27:09;20.73;;;8.93;;
62711;SDS011;48772;55.586;37.730;2022-09-21T06:29:35;14.68;;;9.05;;
62711;SDS011;48772;55.586;37.730;2022-09-21T06:32:01;16.83;;;9.10;;
62711;SDS011;48772;55.586;37.730;2022-09-21T06:34:27;17.63;;;9.35;;
62711;SDS011;48772;55.586;37.730;2022-09-21T06:36:52;18.55;;;9.07;;
62711;SDS011;48772;55.586;37.730;2022-09-21T06:39:18;15.43;;;9.88;;
62711;SDS011;48772;55.586;37.730;2022-09-21T06:41:44;22.63;;;9.90;;
62711;SDS011;48772;55.586;37.730;2022-09-21T06:44:10;19.75;;;10.43;;
62711;SDS011;48772;55.586;37.730;2022-09-21T06:46:36;18.80;;;10.50;;
62711;SDS011;48772;55.586;37.730;2022-09-21T06:49:01;16.58;;;11.93;;
62711;SDS011;48772;55.586;37.730;2022-09-21T06:51:27;18.98;;;12.43;;
62711;SDS011;48772;55.586;37.730;2022-09-21T06:53:53;18.73;;;11.23;;
62711;SDS011;48772;55.586;37.730;2022-09-21T06:56:20;17.63;;;11.18;;
62711;SDS011;48772;55.586;37.730;2022-09-21T06:58:45;17.52;;;10.15;;
62711;SDS011;48772;55.586;37.730;2022-09-21T07:01:12;17.35;;;10.10;;
62711;SDS011;48772;55.586;37.730;2022-09-21T07:03:39;20.45;;;9.93;;
62711;SDS011;48772;55.586;37.730;2022-09-21T07:06:05;16.02;;;9.10;;
62711;SDS011;48772;55.586;37.730;2022-09-21T07:08:31;16.73;;;8.68;;
62711;SDS011;48772;55.586;37.730;2022-09-21T07:10:57;14.10;;;8.55;;
62711;SDS011;48772;55.586;37.730;2022-09-21T07:13:23;20.33;;;8.50;;
62711;SDS011;48772;55.586;37.730;2022-09-21T07:15:49;16.30;;;8.10;;
62711;SDS011;48772;55.586;37.730;2022-09-21T07:18:15;16.88;;;8.60;;
62711;SDS011;48772;55.586;37.730;2022-09-21T07:20:40;11.48;;;7.97;;
62711;SDS011;48772;55.586;37.730;2022-09-21T07:23:10;14.70;;;8.23;;
62711;SDS011;48772;55.586;37.730;2022-09-21T07:25:36;11.80;;;7.38;;
62711;SDS011;48772;55.586;37.730;2022-09-21T07:28:02;13.93;;;7.80;;
62711;SDS011;48772;55.586;37.730;2022-09-21T07:30:27;9.20;;;7.20;;
62711;SDS011;48772;55.586;37.730;2022-09-21T07:32:53;9.93;;;7.07;;
62711;SDS011;48772;55.586;37.730;2022-09-21T07:35:19;14.10;;;8.02;;
62711;SDS011;48772;55.586;37.730;2022-09-21T07:37:45;18.48;;;9.05;;
62711;SDS011;48772;55.586;37.730;2022-09-21T07:40:11;15.93;;;8.10;;
62711;SDS011;48772;55.586;37.730;2022-09-21T07:42:36;16.40;;;9.70;;
62711;SDS011;48772;55.586;37.730;2022-09-21T07:45:02;9.57;;;6.15;;
62711;SDS011;48772;55.586;37.730;2022-09-21T07:47:28;9.05;;;5.80;;
62711;SDS011;48772;55.586;37.730;2022-09-21T07:49:54;9.35;;;5.53;;
62711;SDS011;48772;55.586;37.730;2022-09-21T07:52:20;7.47;;;5.50;;
62711;SDS011;48772;55.586;37.730;2022-09-21T07:54:46;6.82;;;5.10;;
62711;SDS011;48772;55.586;37.730;2022-09-21T07:57:12;6.78;;;4.70;;
62711;SDS011;48772;55.586;37.730;2022-09-21T07:59:56;7.05;;;5.05;;
62711;SDS011;48772;55.586;37.730;2022-09-21T08:02:23;9.30;;;5.22;;
62711;SDS011;48772;55.586;37.730;2022-09-21T08:04:48;7.53;;;5.35;;
62711;SDS011;48772;55.586;37.730;2022-09-21T08:07:14;6.15;;;4.72;;
62711;SDS011;48772;55.586;37.730;2022-09-21T08:09:40;8.02;;;4.80;;
62711;SDS011;48772;55.586;37.730;2022-09-21T08:12:06;8.65;;;4.30;;
62711;SDS011;48772;55.586;37.730;2022-09-21T08:14:33;10.52;;;5.07;;
62711;SDS011;48772;55.586;37.730;2022-09-21T08:17:00;10.40;;;5.38;;
62711;SDS011;48772;55.586;37.730;2022-09-21T08:19:26;8.68;;;5.30;;
62711;SDS011;48772;55.586;37.730;2022-09-21T08:21:52;9.20;;;5.47;;
62711;SDS011;48772;55.586;37.730;2022-09-21T08:24:18;9.75;;;6.07;;
62711;SDS011;48772;55.586;37.730;2022-09-21T08:26:44;13.98;;;5.45;;
62711;SDS011;48772;55.586;37.730;2022-09-21T08:29:10;9.15;;;5.20;;
62711;SDS011;48772;55.586;37.730;2022-09-21T08:31:38;6.30;;;4.47;;
62711;SDS011;48772;55.586;37.730;2022-09-21T08:34:04;8.63;;;4.80;;
62711;SDS011;48772;55.586;37.730;2022-09-21T08:36:30;6.72;;;5.22;;
62711;SDS011;48772;55.586;37.730;2022-09-21T08:38:56;12.98;;;6.25;;
62711;SDS011;48772;55.586;37.730;2022-09-21T08:41:25;6.53;;;5.07;;
62711;SDS011;48772;55.586;37.730;2022-09-21T08:43:59;7.25;;;5.35;;
62711;SDS011;48772;55.586;37.730;2022-09-21T08:46:27;7.22;;;5.18;;
62711;SDS011;48772;55.586;37.730;2022-09-21T08:49:02;5.55;;;4.65;;
62711;SDS011;48772;55.586;37.730;2022-09-21T08:51:35;7.13;;;5.82;;
62711;SDS011;48772;55.586;37.730;2022-09-21T08:54:23;9.55;;;6.07;;
62711;SDS011;48772;55.586;37.730;2022-09-21T08:56:50;13.63;;;6.78;;
62711;SDS011;48772;55.586;37.730;2022-09-21T08:59:16;8.88;;;5.75;;
62711;SDS011;48772;55.586;37.730;2022-09-21T09:01:49;10.93;;;5.57;;
62711;SDS011;48772;55.586;37.730;2022-09-21T09:14:57;8.65;;;5.28;;
62711;SDS011;48772;55.586;37.730;2022-09-21T09:17:35;10.63;;;5.95;;
62711;SDS011;48772;55.586;37.730;2022-09-21T09:20:18;9.68;;;4.88;;
62711;SDS011;48772;55.586;37.730;2022-09-21T09:22:46;8.52;;;5.28;;
62711;SDS011;48772;55.586;37.730;2022-09-21T09:25:17;8.45;;;5.38;;
62711;SDS011;48772;55.586;37.730;2022-09-21T09:27:45;13.63;;;7.47;;
62711;SDS011;48772;55.586;37.730;2022-09-21T09:30:15;7.18;;;4.80;;
62711;SDS011;48772;55.586;37.730;2022-09-21T09:32:53;14.68;;;6.13;;
62711;SDS011;48772;55.586;37.730;2022-09-21T09:35:27;10.95;;;5.07;;
62711;SDS011;48772;55.586;37.730;2022-09-21T09:43:20;9.68;;;4.07;;
62711;SDS011;48772;55.586;37.730;2022-09-21T09:50:48;4.50;;;3.35;;
62711;SDS011;48772;55.586;37.730;2022-09-21T09:53:21;5.57;;;3.22;;
62711;SDS011;48772;55.586;37.730;2022-09-21T09:55:52;6.60;;;2.75;;
62711;SDS011;48772;55.586;37.730;2022-09-21T09:58:19;5.97;;;3.40;;
62711;SDS011;48772;55.586;37.730;2022-09-21T10:00:47;4.25;;;2.80;;
62711;SDS011;48772;55.586;37.730;2022-09-21T10:03:19;4.55;;;2.65;;
62711;SDS011;48772;55.586;37.730;2022-09-21T10:05:45;8.00;;;2.47;;
62711;SDS011;48772;55.586;37.730;2022-09-21T10:08:57;3.65;;;2.50;;
62711;SDS011;48772;55.586;37.730;2022-09-21T10:10:58;3.67;;;2.55;;
62711;SDS011;48772;55.586;37.730;2022-09-21T10:13:37;3.72;;;2.85;;
62711;SDS011;48772;55.586;37.730;2022-09-21T10:16:19;5.32;;;3.30;;
62711;SDS011;48772;55.586;37.730;2022-09-21T10:18:49;5.03;;;2.45;;
62711;SDS011;48772;55.586;37.730;2022-09-21T10:21:23;3.63;;;2.80;;
62711;SDS011;48772;55.586;37.730;2022-09-21T10:23:50;5.95;;;3.05;;
62711;SDS011;48772;55.586;37.730;2022-09-21T10:26:17;4.13;;;2.60;;
62711;SDS011;48772;55.586;37.730;2022-09-21T10:28:53;5.38;;;2.83;;
62711;SDS011;48772;55.586;37.730;2022-09-21T10:31:23;5.55;;;2.78;;
62711;SDS011;48772;55.586;37.730;2022-09-21T10:36:25;5.70;;;3.05;;
62711;SDS011;48772;55.586;37.730;2022-09-21T10:38:51;5.40;;;2.85;;
62711;SDS011;48772;55.586;37.730;2022-09-21T10:41:17;6.28;;;3.45;;
62711;SDS011;48772;55.586;37.730;2022-09-21T10:43:43;5.45;;;3.17;;
62711;SDS011;48772;55.586;37.730;2022-09-21T10:46:09;5.72;;;3.20;;
62711;SDS011;48772;55.586;37.730;2022-09-21T10:48:35;6.28;;;3.00;;
62711;SDS011;48772;55.586;37.730;2022-09-21T10:51:01;6.05;;;3.40;;
62711;SDS011;48772;55.586;37.730;2022-09-21T10:53:31;4.43;;;3.22;;
62711;SDS011;48772;55.586;37.730;2022-09-21T10:58:23;7.70;;;3.00;;
62711;SDS011;48772;55.586;37.730;2022-09-21T11:00:49;10.63;;;3.55;;
62711;SDS011;48772;55.586;37.730;2022-09-21T11:06:20;5.20;;;3.30;;
62711;SDS011;48772;55.586;37.730;2022-09-21T11:09:02;6.97;;;3.30;;
62711;SDS011;48772;55.586;37.730;2022-09-21T11:11:47;5.28;;;3.85;;
62711;SDS011;48772;55.586;37.730;2022-09-21T11:16:57;5.43;;;3.22;;
62711;SDS011;48772;55.586;37.730;2022-09-21T11:32:20;6.68;;;3.75;;
62711;SDS011;48772;55.586;37.730;2022-09-21T11:35:06;6.43;;;3.40;;
62711;SDS011;48772;55.586;37.730;2022-09-21T11:50:52;4.47;;;3.58;;
62711;SDS011;48772;55.586;37.730;2022-09-21T11:53:27;6.78;;;3.85;;
62711;SDS011;48772;55.586;37.730;2022-09-21T12:08:50;8.10;;;3.45;;
62711;SDS011;48772;55.586;37.730;2022-09-21T12:13:55;11.43;;;3.92;;
62711;SDS011;48772;55.586;37.730;2022-09-21T12:19:03;18.30;;;4.22;;
62711;SDS011;48772;55.586;37.730;2022-09-21T12:21:51;8.67;;;3.80;;
62711;SDS011;48772;55.586;37.730;2022-09-21T12:26:46;8.73;;;4.70;;
62711;SDS011;48772;55.586;37.730;2022-09-21T12:31:43;6.18;;;4.20;;
62711;SDS011;48772;55.586;37.730;2022-09-21T12:34:16;12.00;;;4.67;;
62711;SDS011;48772;55.586;37.730;2022-09-21T12:39:28;5.72;;;4.07;;
62711;SDS011;48772;55.586;37.730;2022-09-21T12:41:56;8.40;;;4.18;;
62711;SDS011;48772;55.586;37.730;2022-09-21T12:50:04;9.85;;;4.13;;
62711;SDS011;48772;55.586;37.730;2022-09-21T12:52:30;7.05;;;3.40;;
62711;SDS011;48772;55.586;37.730;2022-09-21T13:00:14;7.95;;;3.47;;
62711;SDS011;48772;55.586;37.730;2022-09-21T13:02:44;6.53;;;3.47;;
62711;SDS011;48772;55.586;37.730;2022-09-21T13:05:20;7.35;;;3.70;;
62711;SDS011;48772;55.586;37.730;2022-09-21T13:07:53;5.55;;;3.40;;
62711;SDS011;48772;55.586;37.730;2022-09-21T13:12:51;6.00;;;3.17;;
62711;SDS011;48772;55.586;37.730;2022-09-21T13:17:55;8.52;;;3.42;;
62711;SDS011;48772;55.586;37.730;2022-09-21T13:20:22;5.22;;;3.05;;
62711;SDS011;48772;55.586;37.730;2022-09-21T13:22:48;9.30;;;3.30;;
62711;SDS011;48772;55.586;37.730;2022-09-21T13:30:43;7.55;;;3.50;;
62711;SDS011;48772;55.586;37.730;2022-09-21T13:38:27;6.78;;;3.25;;
62711;SDS011;48772;55.586;37.730;2022-09-21T13:48:57;3.90;;;3.13;;
62711;SDS011;48772;55.586;37.730;2022-09-21T13:51:23;6.70;;;3.22;;
62711;SDS011;48772;55.586;37.730;2022-09-21T13:53:52;13.00;;;3.55;;
62711;SDS011;48772;55.586;37.730;2022-09-21T13:56:19;5.13;;;3.20;;
62711;SDS011;48772;55.586;37.730;2022-09-21T13:58:52;7.43;;;3.33;;
62711;SDS011;48772;55.586;37.730;2022-09-21T14:01:31;5.25;;;3.00;;
62711;SDS011;48772;55.586;37.730;2022-09-21T14:03:58;5.97;;;3.13;;
62711;SDS011;48772;55.586;37.730;2022-09-21T14:06:26;7.70;;;3.50;;
62711;SDS011;48772;55.586;37.730;2022-09-21T14:08:57;5.70;;;3.50;;
62711;SDS011;48772;55.586;37.730;2022-09-21T14:11:31;7.28;;;3.25;;
62711;SDS011;48772;55.586;37.730;2022-09-21T14:14:12;7.40;;;3.58;;
62711;SDS011;48772;55.586;37.730;2022-09-21T14:24:34;8.73;;;4.18;;
62711;SDS011;48772;55.586;37.730;2022-09-21T14:30:03;9.90;;;5.82;;
62711;SDS011;48772;55.586;37.730;2022-09-21T14:32:22;13.38;;;4.93;;
62711;SDS011;48772;55.586;37.730;2022-09-21T14:34:49;12.23;;;4.88;;
62711;SDS011;48772;55.586;37.730;2022-09-21T14:37:22;12.15;;;5.20;;
62711;SDS011;48772;55.586;37.730;2022-09-21T14:39:51;9.98;;;5.05;;
62711;SDS011;48772;55.586;37.730;2022-09-21T14:42:18;15.80;;;5.50;;
62711;SDS011;48772;55.586;37.730;2022-09-21T14:44:46;13.82;;;6.15;;
62711;SDS011;48772;55.586;37.730;2022-09-21T14:55:15;7.93;;;4.50;;
62711;SDS011;48772;55.586;37.730;2022-09-21T15:00:45;5.45;;;3.72;;
62711;SDS011;48772;55.586;37.730;2022-09-21T15:12:29;9.68;;;5.18;;
62711;SDS011;48772;55.586;37.730;2022-09-21T15:14:58;13.35;;;5.18;;
62711;SDS011;48772;55.586;37.730;2022-09-21T15:17:28;7.38;;;4.57;;
62711;SDS011;48772;55.586;37.730;2022-09-21T15:19:58;6.88;;;4.28;;
62711;SDS011;48772;55.586;37.730;2022-09-21T15:22:25;6.57;;;3.80;;
62711;SDS011;48772;55.586;37.730;2022-09-21T15:24:56;7.20;;;3.45;;
62711;SDS011;48772;55.586;37.730;2022-09-21T15:27:27;4.95;;;2.70;;
62711;SDS011;48772;55.586;37.730;2022-09-21T15:29:58;7.05;;;2.75;;
62711;SDS011;48772;55.586;37.730;2022-09-21T15:32:29;7.10;;;2.80;;
62711;SDS011;48772;55.586;37.730;2022-09-21T15:34:56;6.25;;;3.55;;
62711;SDS011;48772;55.586;37.730;2022-09-21T15:37:33;11.05;;;5.40;;
62711;SDS011;48772;55.586;37.730;2022-09-21T15:39:59;13.00;;;7.63;;
62711;SDS011;48772;55.586;37.730;2022-09-21T15:42:26;11.93;;;5.97;;
62711;SDS011;48772;55.586;37.730;2022-09-21T15:47:36;9.43;;;5.07;;
62711;SDS011;48772;55.586;37.730;2022-09-21T15:50:02;9.27;;;5.20;;
62711;SDS011;48772;55.586;37.730;2022-09-21T15:52:32;5.45;;;3.47;;
62711;SDS011;48772;55.586;37.730;2022-09-21T15:55:08;4.33;;;3.40;;
62711;SDS011;48772;55.586;37.730;2022-09-21T15:57:36;10.95;;;6.50;;
62711;SDS011;48772;55.586;37.730;2022-09-21T16:00:06;7.60;;;5.25;;
62711;SDS011;48772;55.586;37.730;2022-09-21T16:02:48;14.32;;;7.00;;
62711;SDS011;48772;55.586;37.730;2022-09-21T16:05:15;10.70;;;6.32;;
62711;SDS011;48772;55.586;37.730;2022-09-21T16:07:42;11.70;;;6.25;;
62711;SDS011;48772;55.586;37.730;2022-09-21T16:13:01;15.50;;;7.00;;
62711;SDS011;48772;55.586;37.730;2022-09-21T16:18:41;16.60;;;7.07;;
62711;SDS011;48772;55.586;37.730;2022-09-21T16:21:13;12.13;;;7.43;;
62711;SDS011;48772;55.586;37.730;2022-09-21T16:23:39;13.85;;;7.00;;
62711;SDS011;48772;55.586;37.730;2022-09-21T16:26:05;6.38;;;4.03;;
62711;SDS011;48772;55.586;37.730;2022-09-21T16:28:40;12.77;;;5.20;;
62711;SDS011;48772;55.586;37.730;2022-09-21T16:31:22;8.75;;;4.07;;
62711;SDS011;48772;55.586;37.730;2022-09-21T16:39:01;9.40;;;4.67;;
62711;SDS011;48772;55.586;37.730;2022-09-21T16:44:02;7.32;;;4.38;;
62711;SDS011;48772;55.586;37.730;2022-09-21T16:46:29;8.50;;;4.25;;
62711;SDS011;48772;55.586;37.730;2022-09-21T16:48:56;4.35;;;2.67;;
62711;SDS011;48772;55.586;37.730;2022-09-21T16:51:24;7.88;;;4.10;;
62711;SDS011;48772;55.586;37.730;2022-09-21T16:53:50;7.28;;;4.32;;
62711;SDS011;48772;55.586;37.730;2022-09-21T16:56:16;7.63;;;4.05;;
62711;SDS011;48772;55.586;37.730;2022-09-21T16:58:42;7.15;;;3.60;;
62711;SDS011;48772;55.586;37.730;2022-09-21T17:01:12;5.63;;;3.42;;
62711;SDS011;48772;55.586;37.730;2022-09-21T17:03:40;6.60;;;3.38;;
62711;SDS011;48772;55.586;37.730;2022-09-21T17:06:12;6.88;;;3.90;;
62711;SDS011;48772;55.586;37.730;2022-09-21T17:08:38;10.80;;;5.40;;
62711;SDS011;48772;55.586;37.730;2022-09-21T17:11:04;10.93;;;5.43;;
62711;SDS011;48772;55.586;37.730;2022-09-21T17:13:29;10.65;;;5.55;;
62711;SDS011;48772;55.586;37.730;2022-09-21T17:15:56;9.63;;;5.43;;
62711;SDS011;48772;55.586;37.730;2022-09-21T17:18:22;6.43;;;4.47;;
62711;SDS011;48772;55.586;37.730;2022-09-21T17:20:48;8.25;;;5.28;;
62711;SDS011;48772;55.586;37.730;2022-09-21T17:23:13;8.43;;;5.47;;
62711;SDS011;48772;55.586;37.730;2022-09-21T17:25:40;10.15;;;5.45;;
62711;SDS011;48772;55.586;37.730;2022-09-21T17:28:13;11.50;;;6.68;;
62711;SDS011;48772;55.586;37.730;2022-09-21T17:30:39;10.05;;;6.20;;
62711;SDS011;48772;55.586;37.730;2022-09-21T17:33:07;6.85;;;4.93;;
62711;SDS011;48772;55.586;37.730;2022-09-21T17:35:40;11.77;;;4.72;;
62711;SDS011;48772;55.586;37.730;2022-09-21T17:38:06;9.10;;;4.50;;
62711;SDS011;48772;55.586;37.730;2022-09-21T17:40:35;8.60;;;4.18;;
62711;SDS011;48772;55.586;37.730;2022-09-21T17:45:48;8.18;;;4.85;;
62711;SDS011;48772;55.586;37.730;2022-09-21T17:48:18;12.45;;;4.97;;
62711;SDS011;48772;55.586;37.730;2022-09-21T17:50:44;7.45;;;3.63;;
62711;SDS011;48772;55.586;37.730;2022-09-21T17:53:10;10.60;;;4.10;;
62711;SDS011;48772;55.586;37.730;2022-09-21T17:55:56;4.63;;;2.83;;
62711;SDS011;48772;55.586;37.730;2022-09-21T18:03:29;5.72;;;2.75;;
62711;SDS011;48772;55.586;37.730;2022-09-21T18:05:55;3.55;;;2.75;;
62711;SDS011;48772;55.586;37.730;2022-09-21T18:08:25;5.57;;;3.28;;
62711;SDS011;48772;55.586;37.730;2022-09-21T18:16:26;6.05;;;2.88;;